sensor_id;sensor_type;location;lat;lon;timestamp;temperature;humidity
23323;DHT22;11833;52.554;13.554;2023-03-24T01:00:53;12.00;99.90
23323;DHT22;11833;52.554;13.554;2023-03-24T01:03:21;11.70;99.90
23323;DHT22;11833;52.554;13.554;2023-03-24T01:05:51;11.80;99.90
23323;DHT22;11833;52.554;13.554;2023-03-24T01:08:17;12.10;99.90
23323;DHT22;11833;52.554;13.554;2023-03-24T01:10:47;12.10;99.90
23323;DHT22;11833;52.554;13.554;2023-03-24T01:13:18;11.90;99.90
23323;DHT22;11833;52.554;13.554;2023-03-24T01:15:48;11.80;99.90
23323;DHT22;11833;52.554;13.554;2023-03-24T01:18:14;12.00;99.90
23323;DHT22;11833;52.554;13.554;2023-03-24T01:20:41;11.90;99.90
23323;DHT22;11833;52.554;13.554;2023-03-24T01:23:18;12.10;99.90
23323;DHT22;11833;52.554;13.554;2023-03-24T01:25:48;12.10;99.90
23323;DHT22;11833;52.554;13.554;2023-03-24T01:28:15;11.70;99.90
23323;DHT22;11833;52.554;13.554;2023-03-24T01:30:49;11.90;99.90
23323;DHT22;11833;52.554;13.554;2023-03-24T01:33:16;11.60;99.90
23323;DHT22;11833;52.554;13.554;2023-03-24T01:35:42;11.70;99.90
23323;DHT22;11833;52.554;13.554;2023-03-24T01:38:09;11.80;99.90
23323;DHT22;11833;52.554;13.554;2023-03-24T01:40:36;11.70;99.90
23323;DHT22;11833;52.554;13.554;2023-03-24T01:43:04;11.80;99.90
23323;DHT22;11833;52.554;13.554;2023-03-24T01:48:41;11.80;99.90
23323;DHT22;11833;52.554;13.554;2023-03-24T01:51:11;11.80;99.90
23323;DHT22;11833;52.554;13.554;2023-03-24T01:56:43;11.90;99.90
23323;DHT22;11833;52.554;13.554;2023-03-24T01:59:13;11.80;99.90
23323;DHT22;11833;52.554;13.554;2023-03-24T02:01:46;11.60;99.90
23323;DHT22;11833;52.554;13.554;2023-03-24T02:04:12;11.70;99.90
23323;DHT22;11833;52.554;13.554;2023-03-24T02:06:38;11.80;99.90
23323;DHT22;11833;52.554;13.554;2023-03-24T02:09:08;11.90;99.90
23323;DHT22;11833;52.554;13.554;2023-03-24T02:11:35;11.70;99.90
23323;DHT22;11833;52.554;13.554;2023-03-24T02:14:02;11.80;99.90
23323;DHT22;11833;52.554;13.554;2023-03-24T02:30:13;11.80;99.90
23323;DHT22;11833;52.554;13.554;2023-03-24T02:33:07;12.10;99.90
23323;DHT22;11833;52.554;13.554;2023-03-24T02:38:42;12.10;99.90
23323;DHT22;11833;52.554;13.554;2023-03-24T02:44:26;12.10;99.90
23323;DHT22;11833;52.554;13.554;2023-03-24T02:46:58;12.20;99.90
23323;DHT22;11833;52.554;13.554;2023-03-24T02:49:29;12.10;99.90
23323;DHT22;11833;52.554;13.554;2023-03-24T02:54:48;12.10;99.90
23323;DHT22;11833;52.554;13.554;2023-03-24T03:00:05;11.90;99.90
23323;DHT22;11833;52.554;13.554;2023-03-24T03:02:44;12.10;99.90
23323;DHT22;11833;52.554;13.554;2023-03-24T03:05:16;12.50;99.90
23323;DHT22;11833;52.554;13.554;2023-03-24T03:07:47;12.20;99.90
23323;DHT22;11833;52.554;13.554;2023-03-24T03:10:20;11.80;99.90
23323;DHT22;11833;52.554;13.554;2023-03-24T03:12:49;11.90;99.90
23323;DHT22;11833;52.554;13.554;2023-03-24T03:15:23;12.00;99.90
23323;DHT22;11833;52.554;13.554;2023-03-24T03:17:57;11.90;99.90
23323;DHT22;11833;52.554;13.554;2023-03-24T03:20:28;11.90;99.90
23323;DHT22;11833;52.554;13.554;2023-03-24T03:22:57;11.60;99.90
23323;DHT22;11833;52.554;13.554;2023-03-24T03:25:27;11.80;99.90
23323;DHT22;11833;52.554;13.554;2023-03-24T03:27:56;11.60;99.90
23323;DHT22;11833;52.554;13.554;2023-03-24T03:30:29;11.50;99.90
23323;DHT22;11833;52.554;13.554;2023-03-24T03:33:08;11.60;99.90
23323;DHT22;11833;52.554;13.554;2023-03-24T03:38:46;12.10;99.90
23323;DHT22;11833;52.554;13.554;2023-03-24T03:41:14;11.80;99.90
23323;DHT22;11833;52.554;13.554;2023-03-24T03:43:42;11.70;99.90
23323;DHT22;11833;52.554;13.554;2023-03-24T03:46:09;11.60;99.90
23323;DHT22;11833;52.554;13.554;2023-03-24T03:48:35;11.80;99.90
23323;DHT22;11833;52.554;13.554;2023-03-24T03:51:01;12.00;99.90
23323;DHT22;11833;52.554;13.554;2023-03-24T03:56:27;11.90;99.90
23323;DHT22;11833;52.554;13.554;2023-03-24T03:58:54;11.80;99.90
23323;DHT22;11833;52.554;13.554;2023-03-24T04:01:21;11.80;99.90
23323;DHT22;11833;52.554;13.554;2023-03-24T04:06:38;12.00;99.90
23323;DHT22;11833;52.554;13.554;2023-03-24T04:14:21;11.70;99.90
23323;DHT22;11833;52.554;13.554;2023-03-24T04:17:15;11.90;99.90
23323;DHT22;11833;52.554;13.554;2023-03-24T04:20:08;11.90;99.90
23323;DHT22;11833;52.554;13.554;2023-03-24T04:22:39;11.90;99.90
23323;DHT22;11833;52.554;13.554;2023-03-24T04:25:31;11.60;99.90
23323;DHT22;11833;52.554;13.554;2023-03-24T04:28:38;11.70;99.90
23323;DHT22;11833;52.554;13.554;2023-03-24T04:31:24;11.60;99.90
23323;DHT22;11833;52.554;13.554;2023-03-24T04:33:53;11.50;99.90
23323;DHT22;11833;52.554;13.554;2023-03-24T04:36:35;11.40;99.90
23323;DHT22;11833;52.554;13.554;2023-03-24T04:39:16;11.60;99.90
23323;DHT22;11833;52.554;13.554;2023-03-24T04:41:50;11.60;99.90
23323;DHT22;11833;52.554;13.554;2023-03-24T04:44:16;11.90;99.90
23323;DHT22;11833;52.554;13.554;2023-03-24T04:46:47;11.90;99.90
23323;DHT22;11833;52.554;13.554;2023-03-24T04:49:14;11.80;99.90
23323;DHT22;11833;52.554;13.554;2023-03-24T04:51:41;11.90;99.90
23323;DHT22;11833;52.554;13.554;2023-03-24T04:54:07;11.80;99.90
23323;DHT22;11833;52.554;13.554;2023-03-24T04:56:43;11.90;99.90
23323;DHT22;11833;52.554;13.554;2023-03-24T04:59:13;12.10;99.90
23323;DHT22;11833;52.554;13.554;2023-03-24T05:01:40;12.10;99.90
23323;DHT22;11833;52.554;13.554;2023-03-24T05:04:13;12.20;99.90
23323;DHT22;11833;52.554;13.554;2023-03-24T05:06:40;12.10;99.90
23323;DHT22;11833;52.554;13.554;2023-03-24T05:09:06;12.00;99.90
23323;DHT22;11833;52.554;13.554;2023-03-24T05:11:32;11.90;99.90
23323;DHT22;11833;52.554;13.554;2023-03-24T05:13:57;12.10;99.90
23323;DHT22;11833;52.554;13.554;2023-03-24T05:16:23;12.10;99.90
23323;DHT22;11833;52.554;13.554;2023-03-24T05:18:48;12.10;99.90
23323;DHT22;11833;52.554;13.554;2023-03-24T05:21:14;12.10;99.90
23323;DHT22;11833;52.554;13.554;2023-03-24T05:23:40;12.20;99.90
23323;DHT22;11833;52.554;13.554;2023-03-24T05:26:06;11.80;99.90
23323;DHT22;11833;52.554;13.554;2023-03-24T05:28:31;11.80;99.90
23323;DHT22;11833;52.554;13.554;2023-03-24T05:30:57;12.00;99.90
23323;DHT22;11833;52.554;13.554;2023-03-24T05:33:24;12.10;99.90
23323;DHT22;11833;52.554;13.554;2023-03-24T05:35:50;12.20;99.90
23323;DHT22;11833;52.554;13.554;2023-03-24T05:38:15;12.30;99.90
23323;DHT22;11833;52.554;13.554;2023-03-24T05:40:42;12.10;99.90
23323;DHT22;11833;52.554;13.554;2023-03-24T05:43:08;12.30;99.90
23323;DHT22;11833;52.554;13.554;2023-03-24T05:45:34;12.40;99.90
23323;DHT22;11833;52.554;13.554;2023-03-24T05:47:59;12.30;99.90
23323;DHT22;11833;52.554;13.554;2023-03-24T05:50:25;12.50;99.90
23323;DHT22;11833;52.554;13.554;2023-03-24T05:52:51;12.40;99.90
23323;DHT22;11833;52.554;13.554;2023-03-24T05:55:17;12.20;99.90
23323;DHT22;11833;52.554;13.554;2023-03-24T05:57:43;12.30;99.90
23323;DHT22;11833;52.554;13.554;2023-03-24T06:00:09;12.60;99.90
23323;DHT22;11833;52.554;13.554;2023-03-24T06:02:41;12.50;99.90
23323;DHT22;11833;52.554;13.554;2023-03-24T06:05:08;12.60;99.90
23323;DHT22;11833;52.554;13.554;2023-03-24T06:07:34;12.60;99.90
23323;DHT22;11833;52.554;13.554;2023-03-24T06:10:01;12.60;99.90
23323;DHT22;11833;52.554;13.554;2023-03-24T06:12:32;13.00;99.90
23323;DHT22;11833;52.554;13.554;2023-03-24T06:14:58;12.90;99.90
23323;DHT22;11833;52.554;13.554;2023-03-24T06:17:25;12.80;99.90
23323;DHT22;11833;52.554;13.554;2023-03-24T06:19:53;12.70;99.90
23323;DHT22;11833;52.554;13.554;2023-03-24T06:22:27;12.70;99.90
23323;DHT22;11833;52.554;13.554;2023-03-24T06:24:55;12.80;99.90
23323;DHT22;11833;52.554;13.554;2023-03-24T06:27:21;12.70;99.90
23323;DHT22;11833;52.554;13.554;2023-03-24T06:29:50;12.80;99.90
23323;DHT22;11833;52.554;13.554;2023-03-24T06:32:18;12.90;99.90
23323;DHT22;11833;52.554;13.554;2023-03-24T06:34:44;13.10;99.90
23323;DHT22;11833;52.554;13.554;2023-03-24T06:37:10;13.10;99.90
23323;DHT22;11833;52.554;13.554;2023-03-24T06:39:36;13.10;99.90
23323;DHT22;11833;52.554;13.554;2023-03-24T06:42:02;13.00;99.90
23323;DHT22;11833;52.554;13.554;2023-03-24T06:44:28;13.10;99.90
23323;DHT22;11833;52.554;13.554;2023-03-24T06:46:54;13.20;99.90
23323;DHT22;11833;52.554;13.554;2023-03-24T06:49:19;13.20;99.90
23323;DHT22;11833;52.554;13.554;2023-03-24T06:51:45;13.10;99.90
23323;DHT22;11833;52.554;13.554;2023-03-24T06:54:11;13.00;99.90
23323;DHT22;11833;52.554;13.554;2023-03-24T06:56:36;13.10;99.90
23323;DHT22;11833;52.554;13.554;2023-03-24T06:59:02;13.00;99.90
23323;DHT22;11833;52.554;13.554;2023-03-24T07:01:28;13.10;99.90
23323;DHT22;11833;52.554;13.554;2023-03-24T07:03:54;13.40;99.90
23323;DHT22;11833;52.554;13.554;2023-03-24T07:06:20;13.20;99.90
23323;DHT22;11833;52.554;13.554;2023-03-24T07:08:47;13.00;99.90
23323;DHT22;11833;52.554;13.554;2023-03-24T07:11:13;12.90;99.90
23323;DHT22;11833;52.554;13.554;2023-03-24T07:13:39;13.40;99.90
23323;DHT22;11833;52.554;13.554;2023-03-24T07:16:06;13.20;99.90
23323;DHT22;11833;52.554;13.554;2023-03-24T07:18:32;13.10;99.90
23323;DHT22;11833;52.554;13.554;2023-03-24T07:20:58;13.40;99.90
23323;DHT22;11833;52.554;13.554;2023-03-24T07:23:23;13.20;99.90
23323;DHT22;11833;52.554;13.554;2023-03-24T07:25:50;13.40;99.90
23323;DHT22;11833;52.554;13.554;2023-03-24T07:28:15;13.50;99.90
23323;DHT22;11833;52.554;13.554;2023-03-24T07:30:41;13.40;99.90
23323;DHT22;11833;52.554;13.554;2023-03-24T07:33:07;13.30;99.90
23323;DHT22;11833;52.554;13.554;2023-03-24T07:35:35;13.40;99.90
23323;DHT22;11833;52.554;13.554;2023-03-24T07:38:01;13.40;99.90
23323;DHT22;11833;52.554;13.554;2023-03-24T07:40:27;13.50;99.90
23323;DHT22;11833;52.554;13.554;2023-03-24T07:42:54;13.60;99.90
23323;DHT22;11833;52.554;13.554;2023-03-24T07:45:20;13.60;99.90
23323;DHT22;11833;52.554;13.554;2023-03-24T07:47:46;13.70;99.90
23323;DHT22;11833;52.554;13.554;2023-03-24T07:50:12;13.60;99.90
23323;DHT22;11833;52.554;13.554;2023-03-24T07:52:39;13.90;99.90
23323;DHT22;11833;52.554;13.554;2023-03-24T07:55:06;14.10;99.90
23323;DHT22;11833;52.554;13.554;2023-03-24T07:57:36;14.00;99.90
23323;DHT22;11833;52.554;13.554;2023-03-24T08:00:03;14.20;99.90
23323;DHT22;11833;52.554;13.554;2023-03-24T08:02:49;14.00;99.90
23323;DHT22;11833;52.554;13.554;2023-03-24T08:05:16;14.20;99.90
23323;DHT22;11833;52.554;13.554;2023-03-24T08:07:44;14.00;99.90
23323;DHT22;11833;52.554;13.554;2023-03-24T08:10:18;13.50;99.90
23323;DHT22;11833;52.554;13.554;2023-03-24T08:12:45;13.50;99.90
23323;DHT22;11833;52.554;13.554;2023-03-24T08:15:12;13.30;99.90
23323;DHT22;11833;52.554;13.554;2023-03-24T08:17:39;13.50;99.90
23323;DHT22;11833;52.554;13.554;2023-03-24T08:20:06;13.50;99.90
23323;DHT22;11833;52.554;13.554;2023-03-24T08:22:35;13.50;99.90
23323;DHT22;11833;52.554;13.554;2023-03-24T08:25:01;13.40;99.90
23323;DHT22;11833;52.554;13.554;2023-03-24T08:27:26;13.40;99.90
23323;DHT22;11833;52.554;13.554;2023-03-24T08:29:52;13.60;99.90
23323;DHT22;11833;52.554;13.554;2023-03-24T08:32:18;13.60;99.90
23323;DHT22;11833;52.554;13.554;2023-03-24T08:34:44;13.50;99.90
23323;DHT22;11833;52.554;13.554;2023-03-24T08:37:09;13.20;99.90
23323;DHT22;11833;52.554;13.554;2023-03-24T08:39:36;13.40;99.90
23323;DHT22;11833;52.554;13.554;2023-03-24T08:42:01;13.30;99.90
23323;DHT22;11833;52.554;13.554;2023-03-24T08:44:27;13.30;99.90
23323;DHT22;11833;52.554;13.554;2023-03-24T08:46:53;13.30;99.90
23323;DHT22;11833;52.554;13.554;2023-03-24T08:49:18;13.20;99.90
23323;DHT22;11833;52.554;13.554;2023-03-24T08:51:44;13.30;99.90
23323;DHT22;11833;52.554;13.554;2023-03-24T08:54:10;13.30;99.90
23323;DHT22;11833;52.554;13.554;2023-03-24T08:56:37;13.30;99.90
23323;DHT22;11833;52.554;13.554;2023-03-24T08:59:03;13.10;99.90
23323;DHT22;11833;52.554;13.554;2023-03-24T09:01:29;13.10;99.90
23323;DHT22;11833;52.554;13.554;2023-03-24T09:03:55;13.30;99.90
23323;DHT22;11833;52.554;13.554;2023-03-24T09:06:21;13.50;99.90
23323;DHT22;11833;52.554;13.554;2023-03-24T09:08:47;13.50;99.90
23323;DHT22;11833;52.554;13.554;2023-03-24T09:11:14;13.60;99.90
23323;DHT22;11833;52.554;13.554;2023-03-24T09:13:41;13.70;99.90
23323;DHT22;11833;52.554;13.554;2023-03-24T09:16:07;14.00;99.90
23323;DHT22;11833;52.554;13.554;2023-03-24T09:18:32;13.90;99.90
23323;DHT22;11833;52.554;13.554;2023-03-24T09:20:58;13.80;99.90
23323;DHT22;11833;52.554;13.554;2023-03-24T09:23:24;14.00;99.90
23323;DHT22;11833;52.554;13.554;2023-03-24T09:25:50;14.00;99.90
23323;DHT22;11833;52.554;13.554;2023-03-24T09:28:16;14.00;99.90
23323;DHT22;11833;52.554;13.554;2023-03-24T09:30:42;13.90;99.90
23323;DHT22;11833;52.554;13.554;2023-03-24T09:33:08;13.80;99.90
23323;DHT22;11833;52.554;13.554;2023-03-24T09:35:34;13.70;99.90
23323;DHT22;11833;52.554;13.554;2023-03-24T09:38:00;13.60;99.90
23323;DHT22;11833;52.554;13.554;2023-03-24T09:40:30;13.90;99.90
23323;DHT22;11833;52.554;13.554;2023-03-24T09:45:54;13.80;99.90
23323;DHT22;11833;52.554;13.554;2023-03-24T09:56:10;14.60;99.90
23323;DHT22;11833;52.554;13.554;2023-03-24T09:58:41;15.30;99.90
23323;DHT22;11833;52.554;13.554;2023-03-24T10:01:10;15.50;99.90
23323;DHT22;11833;52.554;13.554;2023-03-24T10:03:38;15.60;99.90
23323;DHT22;11833;52.554;13.554;2023-03-24T10:06:06;15.60;99.90
23323;DHT22;11833;52.554;13.554;2023-03-24T10:08:43;15.30;99.90
23323;DHT22;11833;52.554;13.554;2023-03-24T10:14:22;14.90;99.90
23323;DHT22;11833;52.554;13.554;2023-03-24T10:17:00;15.10;99.90
23323;DHT22;11833;52.554;13.554;2023-03-24T10:19:38;15.50;99.90
23323;DHT22;11833;52.554;13.554;2023-03-24T10:22:14;15.40;99.90
23323;DHT22;11833;52.554;13.554;2023-03-24T10:27:31;15.60;99.90
23323;DHT22;11833;52.554;13.554;2023-03-24T10:30:00;15.30;99.90
23323;DHT22;11833;52.554;13.554;2023-03-24T10:32:31;15.40;99.90
23323;DHT22;11833;52.554;13.554;2023-03-24T10:34:59;15.50;99.90
23323;DHT22;11833;52.554;13.554;2023-03-24T10:37:31;15.50;99.90
23323;DHT22;11833;52.554;13.554;2023-03-24T10:39:57;15.30;99.90
23323;DHT22;11833;52.554;13.554;2023-03-24T10:42:25;15.50;99.90
23323;DHT22;11833;52.554;13.554;2023-03-24T10:44:56;15.60;99.90
23323;DHT22;11833;52.554;13.554;2023-03-24T10:47:25;16.00;99.90
23323;DHT22;11833;52.554;13.554;2023-03-24T10:49:54;16.20;99.90
23323;DHT22;11833;52.554;13.554;2023-03-24T10:52:22;16.50;99.90
23323;DHT22;11833;52.554;13.554;2023-03-24T10:54:53;16.70;99.90
23323;DHT22;11833;52.554;13.554;2023-03-24T10:57:20;17.00;99.90
23323;DHT22;11833;52.554;13.554;2023-03-24T11:02:23;16.80;99.90
23323;DHT22;11833;52.554;13.554;2023-03-24T11:04:56;16.40;99.90
23323;DHT22;11833;52.554;13.554;2023-03-24T11:07:27;16.10;99.90
23323;DHT22;11833;52.554;13.554;2023-03-24T11:12:33;16.30;99.90
23323;DHT22;11833;52.554;13.554;2023-03-24T11:15:18;16.60;99.90
23323;DHT22;11833;52.554;13.554;2023-03-24T11:17:58;16.30;99.90
23323;DHT22;11833;52.554;13.554;2023-03-24T11:20:35;15.90;99.90
23323;DHT22;11833;52.554;13.554;2023-03-24T11:23:05;15.90;99.90
23323;DHT22;11833;52.554;13.554;2023-03-24T11:25:35;15.90;99.90
23323;DHT22;11833;52.554;13.554;2023-03-24T11:28:04;15.90;99.90
23323;DHT22;11833;52.554;13.554;2023-03-24T11:30:42;16.40;99.90
23323;DHT22;11833;52.554;13.554;2023-03-24T11:33:29;16.30;99.90
23323;DHT22;11833;52.554;13.554;2023-03-24T11:35:59;16.20;99.90
23323;DHT22;11833;52.554;13.554;2023-03-24T11:38:29;16.40;99.90
23323;DHT22;11833;52.554;13.554;2023-03-24T11:41:00;16.30;99.90
23323;DHT22;11833;52.554;13.554;2023-03-24T11:43:29;16.50;99.90
23323;DHT22;11833;52.554;13.554;2023-03-24T11:45:59;16.60;99.90
23323;DHT22;11833;52.554;13.554;2023-03-24T11:51:05;17.10;99.90
23323;DHT22;11833;52.554;13.554;2023-03-24T11:53:41;17.30;99.90
23323;DHT22;11833;52.554;13.554;2023-03-24T11:56:12;17.30;99.90
23323;DHT22;11833;52.554;13.554;2023-03-24T11:58:55;17.90;99.90
23323;DHT22;11833;52.554;13.554;2023-03-24T12:01:27;18.50;99.90
23323;DHT22;11833;52.554;13.554;2023-03-24T12:04:07;18.40;99.90
23323;DHT22;11833;52.554;13.554;2023-03-24T12:14:39;17.30;99.90
23323;DHT22;11833;52.554;13.554;2023-03-24T12:17:13;17.20;99.90
23323;DHT22;11833;52.554;13.554;2023-03-24T12:30:29;16.80;99.90
23323;DHT22;11833;52.554;13.554;2023-03-24T12:38:10;16.70;98.60
23323;DHT22;11833;52.554;13.554;2023-03-24T12:54:40;16.30;98.40
23323;DHT22;11833;52.554;13.554;2023-03-24T12:57:31;16.70;95.50
23323;DHT22;11833;52.554;13.554;2023-03-24T13:00:11;16.40;96.40
23323;DHT22;11833;52.554;13.554;2023-03-24T13:02:52;16.40;98.10
23323;DHT22;11833;52.554;13.554;2023-03-24T13:05:26;16.50;97.50
23323;DHT22;11833;52.554;13.554;2023-03-24T13:07:56;16.60;99.60
23323;DHT22;11833;52.554;13.554;2023-03-24T13:10:25;16.70;93.90
23323;DHT22;11833;52.554;13.554;2023-03-24T13:12:59;16.30;95.80
23323;DHT22;11833;52.554;13.554;2023-03-24T13:15:34;16.00;94.30
23323;DHT22;11833;52.554;13.554;2023-03-24T13:20:32;15.90;97.10
23323;DHT22;11833;52.554;13.554;2023-03-24T13:23:03;15.70;97.20
23323;DHT22;11833;52.554;13.554;2023-03-24T13:28:15;15.90;96.10
23323;DHT22;11833;52.554;13.554;2023-03-24T13:30:46;15.70;97.80
23323;DHT22;11833;52.554;13.554;2023-03-24T13:33:14;15.70;97.40
23323;DHT22;11833;52.554;13.554;2023-03-24T13:40:48;15.40;99.90
23323;DHT22;11833;52.554;13.554;2023-03-24T13:43:28;15.20;99.90
23323;DHT22;11833;52.554;13.554;2023-03-24T13:45:58;14.90;99.90
23323;DHT22;11833;52.554;13.554;2023-03-24T13:51:03;13.70;99.90
23323;DHT22;11833;52.554;13.554;2023-03-24T13:53:37;13.30;99.90
23323;DHT22;11833;52.554;13.554;2023-03-24T13:56:04;13.90;99.90
23323;DHT22;11833;52.554;13.554;2023-03-24T13:59:06;13.70;99.90
23323;DHT22;11833;52.554;13.554;2023-03-24T14:01:33;13.80;99.90
23323;DHT22;11833;52.554;13.554;2023-03-24T14:06:47;13.80;99.90
23323;DHT22;11833;52.554;13.554;2023-03-24T14:10:26;13.50;99.90
23323;DHT22;11833;52.554;13.554;2023-03-24T14:12:21;13.50;99.90
23323;DHT22;11833;52.554;13.554;2023-03-24T14:17:39;13.50;99.90
23323;DHT22;11833;52.554;13.554;2023-03-24T14:22:39;13.40;99.90
23323;DHT22;11833;52.554;13.554;2023-03-24T14:27:44;13.70;99.90
23323;DHT22;11833;52.554;13.554;2023-03-24T14:32:44;13.50;99.90
23323;DHT22;11833;52.554;13.554;2023-03-24T14:35:21;13.40;99.90
23323;DHT22;11833;52.554;13.554;2023-03-24T14:37:56;13.40;99.90
23323;DHT22;11833;52.554;13.554;2023-03-24T14:40:27;13.50;99.90
23323;DHT22;11833;52.554;13.554;2023-03-24T14:42:56;13.60;99.90
23323;DHT22;11833;52.554;13.554;2023-03-24T14:48:00;14.00;99.90
23323;DHT22;11833;52.554;13.554;2023-03-24T14:50:26;14.20;99.90
23323;DHT22;11833;52.554;13.554;2023-03-24T14:53:00;14.30;99.90
23323;DHT22;11833;52.554;13.554;2023-03-24T14:55:27;14.30;99.90
23323;DHT22;11833;52.554;13.554;2023-03-24T14:57:53;14.40;99.90
23323;DHT22;11833;52.554;13.554;2023-03-24T15:00:43;14.50;99.90
23323;DHT22;11833;52.554;13.554;2023-03-24T15:05:52;14.70;99.90
23323;DHT22;11833;52.554;13.554;2023-03-24T15:08:22;15.50;99.90
23323;DHT22;11833;52.554;13.554;2023-03-24T15:10:50;15.30;99.90
23323;DHT22;11833;52.554;13.554;2023-03-24T15:15:51;15.20;99.90
23323;DHT22;11833;52.554;13.554;2023-03-24T15:18:17;15.30;99.90
23323;DHT22;11833;52.554;13.554;2023-03-24T15:20:50;15.30;99.90
23323;DHT22;11833;52.554;13.554;2023-03-24T15:23:24;15.20;99.90
23323;DHT22;11833;52.554;13.554;2023-03-24T15:25:52;15.20;99.90
23323;DHT22;11833;52.554;13.554;2023-03-24T15:30:51;15.80;99.60
23323;DHT22;11833;52.554;13.554;2023-03-24T15:33:17;15.80;99.90
23323;DHT22;11833;52.554;13.554;2023-03-24T15:35:43;15.70;97.70
23323;DHT22;11833;52.554;13.554;2023-03-24T15:38:20;15.60;97.20
23323;DHT22;11833;52.554;13.554;2023-03-24T15:43:39;15.90;97.10
23323;DHT22;11833;52.554;13.554;2023-03-24T15:46:16;16.20;93.60
23323;DHT22;11833;52.554;13.554;2023-03-24T15:48:44;16.40;93.60
23323;DHT22;11833;52.554;13.554;2023-03-24T15:51:10;16.90;92.90
23323;DHT22;11833;52.554;13.554;2023-03-24T15:58:49;17.40;83.30
23323;DHT22;11833;52.554;13.554;2023-03-24T16:01:21;16.80;87.80
23323;DHT22;11833;52.554;13.554;2023-03-24T16:03:51;16.80;90.40
23323;DHT22;11833;52.554;13.554;2023-03-24T16:06:28;17.30;84.70
23323;DHT22;11833;52.554;13.554;2023-03-24T16:08:58;16.60;85.90
23323;DHT22;11833;52.554;13.554;2023-03-24T16:11:25;16.20;85.70
23323;DHT22;11833;52.554;13.554;2023-03-24T16:13:51;15.90;90.20
23323;DHT22;11833;52.554;13.554;2023-03-24T16:16:27;15.80;89.70
23323;DHT22;11833;52.554;13.554;2023-03-24T16:18:54;15.70;89.30
23323;DHT22;11833;52.554;13.554;2023-03-24T16:21:22;15.80;89.00
23323;DHT22;11833;52.554;13.554;2023-03-24T16:23:49;15.50;87.20
23323;DHT22;11833;52.554;13.554;2023-03-24T16:26:17;15.80;88.30
23323;DHT22;11833;52.554;13.554;2023-03-24T16:28:44;15.90;85.10
23323;DHT22;11833;52.554;13.554;2023-03-24T16:31:16;15.70;87.50
23323;DHT22;11833;52.554;13.554;2023-03-24T16:33:46;15.80;85.10
23323;DHT22;11833;52.554;13.554;2023-03-24T16:36:13;15.80;85.90
23323;DHT22;11833;52.554;13.554;2023-03-24T16:38:39;15.80;86.00
23323;DHT22;11833;52.554;13.554;2023-03-24T16:41:05;15.60;85.90
23323;DHT22;11833;52.554;13.554;2023-03-24T16:43:31;15.60;86.20
23323;DHT22;11833;52.554;13.554;2023-03-24T16:45:58;15.40;84.60
23323;DHT22;11833;52.554;13.554;2023-03-24T16:48:24;15.20;90.60
23323;DHT22;11833;52.554;13.554;2023-03-24T16:50:51;15.20;87.80
23323;DHT22;11833;52.554;13.554;2023-03-24T16:53:17;15.00;86.80
23323;DHT22;11833;52.554;13.554;2023-03-24T16:55:43;14.80;88.60
23323;DHT22;11833;52.554;13.554;2023-03-24T16:58:11;14.80;87.20
23323;DHT22;11833;52.554;13.554;2023-03-24T17:00:37;14.70;89.10
23323;DHT22;11833;52.554;13.554;2023-03-24T17:03:03;14.60;88.50
23323;DHT22;11833;52.554;13.554;2023-03-24T17:08:16;14.70;89.10
23323;DHT22;11833;52.554;13.554;2023-03-24T17:10:43;14.70;88.10
23323;DHT22;11833;52.554;13.554;2023-03-24T17:13:15;14.40;87.20
23323;DHT22;11833;52.554;13.554;2023-03-24T17:15:43;14.30;89.10
23323;DHT22;11833;52.554;13.554;2023-03-24T17:18:08;14.20;88.00
23323;DHT22;11833;52.554;13.554;2023-03-24T17:20:34;14.20;90.50
23323;DHT22;11833;52.554;13.554;2023-03-24T17:23:04;14.10;89.20
23323;DHT22;11833;52.554;13.554;2023-03-24T17:25:30;14.10;90.40
23323;DHT22;11833;52.554;13.554;2023-03-24T17:27:56;14.10;90.30
23323;DHT22;11833;52.554;13.554;2023-03-24T17:30:22;14.00;90.00
23323;DHT22;11833;52.554;13.554;2023-03-24T17:32:49;14.00;90.50
23323;DHT22;11833;52.554;13.554;2023-03-24T17:35:15;14.00;90.90
23323;DHT22;11833;52.554;13.554;2023-03-24T17:37:43;14.00;90.20
23323;DHT22;11833;52.554;13.554;2023-03-24T17:40:09;13.90;90.60
23323;DHT22;11833;52.554;13.554;2023-03-24T17:42:40;13.80;91.10
23323;DHT22;11833;52.554;13.554;2023-03-24T17:45:07;13.70;91.30
23323;DHT22;11833;52.554;13.554;2023-03-24T17:47:35;13.60;91.00
23323;DHT22;11833;52.554;13.554;2023-03-24T17:50:01;13.60;90.80
23323;DHT22;11833;52.554;13.554;2023-03-24T17:52:37;13.60;91.20
23323;DHT22;11833;52.554;13.554;2023-03-24T17:55:04;13.60;91.30
23323;DHT22;11833;52.554;13.554;2023-03-24T17:57:30;13.40;93.90
23323;DHT22;11833;52.554;13.554;2023-03-24T17:59:56;13.50;94.70
23323;DHT22;11833;52.554;13.554;2023-03-24T18:02:22;13.50;95.40
23323;DHT22;11833;52.554;13.554;2023-03-24T18:04:48;13.50;99.90
23323;DHT22;11833;52.554;13.554;2023-03-24T18:07:13;13.90;98.30
23323;DHT22;11833;52.554;13.554;2023-03-24T18:09:39;13.90;99.90
23323;DHT22;11833;52.554;13.554;2023-03-24T18:12:05;13.60;99.90
23323;DHT22;11833;52.554;13.554;2023-03-24T18:14:31;13.50;96.30
23323;DHT22;11833;52.554;13.554;2023-03-24T18:16:57;13.50;98.50
23323;DHT22;11833;52.554;13.554;2023-03-24T18:19:22;13.50;97.20
23323;DHT22;11833;52.554;13.554;2023-03-24T18:21:48;13.50;98.20
23323;DHT22;11833;52.554;13.554;2023-03-24T18:24:14;13.50;98.30
23323;DHT22;11833;52.554;13.554;2023-03-24T18:26:40;13.40;96.20
23323;DHT22;11833;52.554;13.554;2023-03-24T18:29:05;13.20;96.10
23323;DHT22;11833;52.554;13.554;2023-03-24T18:31:31;13.20;96.40
23323;DHT22;11833;52.554;13.554;2023-03-24T18:33:57;13.20;97.90
23323;DHT22;11833;52.554;13.554;2023-03-24T18:36:23;13.10;99.60
23323;DHT22;11833;52.554;13.554;2023-03-24T18:38:57;13.00;98.40
23323;DHT22;11833;52.554;13.554;2023-03-24T18:41:25;13.00;99.40
23323;DHT22;11833;52.554;13.554;2023-03-24T18:43:53;13.20;99.90
23323;DHT22;11833;52.554;13.554;2023-03-24T18:46:19;13.20;99.90
23323;DHT22;11833;52.554;13.554;2023-03-24T18:48:45;13.30;99.90
23323;DHT22;11833;52.554;13.554;2023-03-24T18:51:12;13.40;99.90
23323;DHT22;11833;52.554;13.554;2023-03-24T18:53:38;13.20;99.90
23323;DHT22;11833;52.554;13.554;2023-03-24T18:56:04;13.10;99.90
23323;DHT22;11833;52.554;13.554;2023-03-24T18:58:31;13.00;99.90
23323;DHT22;11833;52.554;13.554;2023-03-24T19:00:58;12.80;99.90
23323;DHT22;11833;52.554;13.554;2023-03-24T19:03:27;12.80;99.90